createdAt,value
2022-08-24T00:00:59.016Z,40.07
2022-08-24T00:01:59.239Z,40.12
2022-08-24T00:02:59.357Z,39.05
2022-08-24T00:03:59.565Z,38.94
2022-08-24T00:04:59.395Z,38.94
2022-08-24T00:05:59.455Z,38.99
2022-08-24T00:06:59.568Z,38.94
2022-08-24T00:07:59.692Z,38.94
2022-08-24T00:08:59.786Z,38.99
2022-08-24T00:09:59.863Z,38.94
2022-08-24T00:10:59.921Z,40.12
2022-08-24T00:12:00.042Z,38.94
2022-08-24T00:13:00.130Z,38.99
2022-08-24T00:14:00.253Z,40.12
2022-08-24T00:15:00.342Z,40.12
2022-08-24T00:16:00.421Z,40.12
2022-08-24T00:17:00.559Z,40.07
2022-08-24T00:18:00.579Z,40.07
2022-08-24T00:19:00.701Z,40.18
2022-08-24T00:20:00.776Z,38.94
2022-08-24T00:21:00.862Z,40.12
2022-08-24T00:22:00.970Z,38.94
2022-08-24T00:23:01.049Z,38.99
2022-08-24T00:24:01.691Z,40.07
2022-08-24T00:25:01.341Z,40.07
2022-08-24T00:26:01.304Z,40.18
2022-08-24T00:27:01.390Z,38.99
2022-08-24T00:28:01.567Z,38.94
2022-08-24T00:29:06.844Z,40.07
2022-08-24T00:30:01.666Z,38.94
2022-08-24T00:31:01.742Z,40.12
2022-08-24T00:32:01.847Z,40.12
2022-08-24T00:33:01.897Z,38.94
2022-08-24T00:34:01.987Z,38.89
2022-08-24T00:35:02.107Z,38.94
2022-08-24T00:36:02.160Z,40.18
2022-08-24T00:37:02.267Z,40.12
2022-08-24T00:38:02.545Z,40.07
2022-08-24T00:39:02.429Z,38.94
2022-08-24T00:40:02.667Z,38.89
2022-08-24T00:41:02.622Z,40.18
2022-08-24T00:42:02.713Z,40.07
2022-08-24T00:43:02.852Z,38.89
2022-08-24T00:44:02.918Z,38.94
2022-08-24T00:45:03.028Z,38.94
2022-08-24T00:46:03.158Z,40.12
2022-08-24T00:47:03.217Z,38.99
2022-08-24T00:48:03.488Z,40.12
2022-08-24T00:49:03.437Z,38.99
2022-08-24T00:50:03.540Z,40.12
2022-08-24T00:51:03.587Z,40.07
2022-08-24T00:52:03.746Z,40.18
2022-08-24T00:53:03.771Z,38.94
2022-08-24T00:54:03.857Z,40.18
2022-08-24T00:55:03.997Z,38.94
2022-08-24T00:56:04.054Z,40.07
2022-08-24T00:57:04.157Z,38.94
2022-08-24T00:58:04.376Z,40.18
2022-08-24T00:59:04.323Z,40.12
2022-08-24T01:00:04.412Z,38.94
2022-08-24T01:01:04.514Z,40.12
2022-08-24T01:02:10.713Z,38.89
2022-08-24T01:03:04.681Z,38.94
2022-08-24T01:04:04.723Z,39.48
2022-08-24T01:05:04.848Z,40.12
2022-08-24T01:06:04.904Z,38.94
2022-08-24T01:07:05.028Z,40.12
2022-08-24T01:08:05.258Z,38.94
2022-08-24T01:09:05.213Z,40.07
2022-08-24T01:10:05.348Z,40.18
2022-08-24T01:11:05.391Z,38.94
2022-08-24T01:12:05.498Z,40.28
2022-08-24T01:13:05.592Z,40.12
2022-08-24T01:14:05.678Z,38.83
2022-08-24T01:15:05.828Z,40.12
2022-08-24T01:16:05.945Z,40.12
2022-08-24T01:17:05.966Z,40.12
2022-08-24T01:18:06.028Z,38.94
2022-08-24T01:19:06.121Z,38.99
2022-08-24T01:20:06.232Z,40.12
2022-08-24T01:21:06.323Z,40.12
2022-08-24T01:22:06.390Z,40.07
2022-08-24T01:23:06.523Z,40.07
2022-08-24T01:24:06.647Z,38.94
2022-08-24T01:25:06.697Z,40.12
2022-08-24T01:26:06.774Z,40.12
2022-08-24T01:27:06.867Z,40.12
2022-08-24T01:28:07.047Z,39.05
2022-08-24T01:29:07.068Z,40.12
2022-08-24T01:30:07.153Z,38.94
2022-08-24T01:31:07.327Z,40.12
2022-08-24T01:32:07.432Z,40.12
2022-08-24T01:33:07.450Z,38.94
2022-08-24T01:34:07.576Z,40.12
2022-08-24T01:35:07.630Z,38.94
2022-08-24T01:36:07.719Z,38.99
2022-08-24T01:37:07.819Z,40.12
2022-08-24T01:38:07.923Z,40.18
2022-08-24T01:39:08.036Z,38.94
2022-08-24T01:40:08.164Z,38.94
2022-08-24T01:41:08.215Z,38.99
2022-08-24T01:42:08.332Z,40.12
2022-08-24T01:43:08.432Z,40.12
2022-08-24T01:44:08.527Z,39.16
2022-08-24T01:45:08.623Z,38.94
2022-08-24T01:46:08.778Z,40.12
2022-08-24T01:47:08.827Z,40.07
2022-08-24T01:48:08.923Z,40.12
2022-08-24T01:49:09.026Z,38.94
2022-08-24T01:50:09.099Z,38.94
2022-08-24T01:51:09.200Z,38.94
2022-08-24T01:52:09.287Z,39.05
2022-08-24T01:53:09.397Z,40.12
2022-08-24T01:54:09.477Z,38.94
2022-08-24T01:55:09.573Z,38.94
2022-08-24T01:56:09.682Z,38.94
2022-08-24T01:57:09.803Z,38.94
2022-08-24T01:58:09.882Z,38.99
2022-08-24T01:59:09.996Z,38.94
2022-08-24T02:00:10.065Z,38.94
2022-08-24T02:01:10.142Z,38.99
2022-08-24T02:02:10.345Z,40.12
2022-08-24T02:03:10.389Z,38.94
2022-08-24T02:04:10.435Z,38.94
2022-08-24T02:05:10.512Z,40.12
2022-08-24T02:06:10.619Z,40.07
2022-08-24T02:07:10.728Z,38.94
2022-08-24T02:08:10.839Z,38.94
2022-08-24T02:09:10.946Z,38.94
2022-08-24T02:10:11.047Z,39.05
2022-08-24T02:11:11.122Z,40.18
2022-08-24T02:12:11.239Z,40.12
2022-08-24T02:13:11.309Z,38.99
2022-08-24T02:14:11.494Z,40.12
2022-08-24T02:15:11.541Z,40.12
2022-08-24T02:16:11.800Z,40.07
2022-08-24T02:17:11.706Z,38.94
2022-08-24T02:18:14.968Z,40.12
2022-08-24T02:19:11.915Z,38.94
2022-08-24T02:20:12.011Z,38.89
2022-08-24T02:21:12.106Z,38.94
2022-08-24T02:22:12.212Z,38.99
2022-08-24T02:23:12.309Z,38.94
2022-08-24T02:24:12.421Z,38.94
2022-08-24T02:25:14.179Z,40.12
2022-08-24T02:26:12.612Z,38.94
2022-08-24T02:27:12.680Z,40.12
2022-08-24T02:28:12.770Z,38.99
2022-08-24T02:29:12.889Z,40.12
2022-08-24T02:30:12.988Z,40.12
2022-08-24T02:31:13.212Z,38.94
2022-08-24T02:32:13.181Z,38.94
2022-08-24T02:33:13.283Z,40.12
2022-08-24T02:34:13.391Z,40.18
2022-08-24T02:35:13.493Z,38.94
2022-08-24T02:36:26.022Z,38.94
2022-08-24T02:37:13.717Z,40.12
2022-08-24T02:38:13.776Z,40.12
2022-08-24T02:39:13.904Z,38.94
2022-08-24T02:40:14.081Z,38.99
2022-08-24T02:41:14.066Z,38.94
2022-08-24T02:42:14.150Z,38.94
2022-08-24T02:43:14.237Z,38.94
2022-08-24T02:44:14.347Z,38.99
2022-08-24T02:45:14.441Z,38.94
2022-08-24T02:46:14.555Z,40.12
2022-08-24T02:47:14.595Z,40.12
2022-08-24T02:48:14.690Z,40.12
2022-08-24T02:49:14.865Z,40.12
2022-08-24T02:50:14.871Z,38.94
2022-08-24T02:51:14.986Z,40.12
2022-08-24T02:52:15.081Z,38.94
2022-08-24T02:53:15.195Z,40.12
2022-08-24T02:54:15.264Z,38.94
2022-08-24T02:55:15.345Z,40.12
2022-08-24T02:56:15.438Z,40.07
2022-08-24T02:57:15.540Z,38.94
2022-08-24T02:58:15.695Z,38.99
2022-08-24T02:59:15.738Z,38.94
2022-08-24T03:00:15.824Z,40.12
2022-08-24T03:01:17.685Z,38.94
2022-08-24T03:02:16.066Z,38.99
2022-08-24T03:03:16.137Z,38.94
2022-08-24T03:04:16.401Z,40.18
2022-08-24T03:05:16.426Z,38.89
2022-08-24T03:06:16.557Z,40.12
2022-08-24T03:07:16.670Z,38.94
2022-08-24T03:08:16.715Z,40.23
2022-08-24T03:09:16.733Z,38.94
2022-08-24T03:10:16.957Z,40.07
2022-08-24T03:11:16.940Z,38.94
2022-08-24T03:12:17.112Z,40.12
2022-08-24T03:13:17.170Z,40.12
2022-08-24T03:14:17.389Z,40.12
2022-08-24T03:15:17.396Z,38.94
2022-08-24T03:16:17.472Z,38.99
2022-08-24T03:17:17.635Z,38.99
2022-08-24T03:18:17.673Z,40.12
2022-08-24T03:19:17.813Z,39.05
2022-08-24T03:20:17.887Z,40.12
2022-08-24T03:21:17.938Z,38.94
2022-08-24T03:22:18.102Z,40.12
2022-08-24T03:23:18.221Z,38.94
2022-08-24T03:24:18.307Z,38.89
2022-08-24T03:25:18.344Z,38.94
2022-08-24T03:26:18.391Z,40.12
2022-08-24T03:27:18.556Z,38.94
2022-08-24T03:28:18.618Z,38.99
2022-08-24T03:29:18.896Z,38.99
2022-08-24T03:30:18.765Z,38.94
2022-08-24T03:31:19.244Z,38.99
2022-08-24T03:32:19.091Z,40.07
2022-08-24T03:33:19.139Z,40.12
2022-08-24T03:34:19.257Z,38.99
2022-08-24T03:35:19.291Z,38.99
2022-08-24T03:36:19.460Z,38.94
2022-08-24T03:37:19.515Z,40.12
2022-08-24T03:38:19.570Z,38.89
2022-08-24T03:39:19.714Z,38.89
2022-08-24T03:40:22.859Z,38.94
2022-08-24T03:41:20.002Z,38.94
2022-08-24T03:42:19.990Z,40.07
2022-08-24T03:43:20.090Z,38.94
2022-08-24T03:44:23.210Z,38.94
2022-08-24T03:45:20.342Z,38.94
2022-08-24T03:46:20.417Z,38.94
2022-08-24T03:47:20.438Z,38.94
2022-08-24T03:48:20.582Z,40.18
2022-08-24T03:49:20.695Z,40.12
2022-08-24T03:50:20.808Z,40.07
2022-08-24T03:51:20.819Z,40.12
2022-08-24T03:52:21.877Z,40.18
2022-08-24T03:53:21.025Z,38.99
2022-08-24T03:54:21.157Z,40.12
2022-08-24T03:55:21.199Z,38.94
2022-08-24T03:56:21.329Z,40.07
2022-08-24T03:57:21.451Z,40.12
2022-08-24T03:58:21.484Z,38.89
2022-08-24T03:59:21.871Z,38.94
2022-08-24T04:00:21.738Z,40.18
2022-08-24T04:01:21.766Z,40.12
2022-08-24T04:02:21.863Z,38.94
2022-08-24T04:03:21.937Z,38.99
2022-08-24T04:04:22.035Z,40.12
2022-08-24T04:05:22.175Z,40.12
2022-08-24T04:06:22.213Z,40.12
2022-08-24T04:07:22.338Z,38.94
2022-08-24T04:08:22.505Z,38.89
2022-08-24T04:09:22.597Z,38.94
2022-08-24T04:10:22.597Z,40.12
2022-08-24T04:11:22.707Z,40.07
2022-08-24T04:12:23.244Z,40.12
2022-08-24T04:13:22.926Z,38.94
2022-08-24T04:14:27.541Z,40.12
2022-08-24T04:15:23.112Z,40.07
2022-08-24T04:16:23.229Z,40.12
2022-08-24T04:17:23.254Z,38.89
2022-08-24T04:18:26.903Z,40.07
2022-08-24T04:19:23.448Z,38.94
2022-08-24T04:20:23.548Z,40.12
2022-08-24T04:21:23.663Z,38.94
2022-08-24T04:22:23.763Z,38.94
2022-08-24T04:23:23.882Z,38.99
2022-08-24T04:24:23.976Z,40.07
2022-08-24T04:25:25.123Z,38.94
2022-08-24T04:26:34.767Z,38.99
2022-08-24T04:27:24.271Z,38.94
2022-08-24T04:28:24.372Z,38.94
2022-08-24T04:29:24.440Z,38.94
2022-08-24T04:30:24.527Z,38.99
2022-08-24T04:31:24.656Z,39.91
2022-08-24T04:32:24.710Z,40.12
2022-08-24T04:33:24.837Z,38.94
2022-08-24T04:34:24.938Z,40.12
2022-08-24T04:35:24.982Z,38.94
2022-08-24T04:36:25.121Z,40.12
2022-08-24T04:37:27.995Z,38.94
2022-08-24T04:38:25.280Z,40.07
2022-08-24T04:39:25.368Z,40.07
2022-08-24T04:40:25.507Z,38.99
2022-08-24T04:41:28.967Z,38.94
2022-08-24T04:42:25.656Z,38.99
2022-08-24T04:43:25.759Z,40.07
2022-08-24T04:44:25.872Z,38.94
2022-08-24T04:45:26.019Z,40.12
2022-08-24T04:46:26.127Z,38.94
2022-08-24T04:47:26.137Z,38.94
2022-08-24T04:48:26.292Z,40.12
2022-08-24T04:49:26.340Z,38.89
2022-08-24T04:50:26.435Z,38.99
2022-08-24T04:51:26.520Z,40.07
2022-08-24T04:52:26.640Z,40.18
2022-08-24T04:53:26.720Z,38.89
2022-08-24T04:54:26.791Z,38.94
2022-08-24T04:55:26.905Z,38.99
2022-08-24T04:56:26.984Z,40.18
2022-08-24T04:57:27.136Z,38.94
2022-08-24T04:58:27.239Z,40.12
2022-08-24T04:59:27.280Z,40.12
2022-08-24T05:00:27.423Z,38.94
2022-08-24T05:01:27.516Z,38.94
2022-08-24T05:02:27.632Z,38.94
2022-08-24T05:03:27.681Z,40.12
2022-08-24T05:04:27.785Z,40.07
2022-08-24T05:05:27.860Z,40.12
2022-08-24T05:06:27.971Z,40.12
2022-08-24T05:07:28.057Z,40.12
2022-08-24T05:08:28.135Z,40.12
2022-08-24T05:09:28.238Z,38.94
2022-08-24T05:10:31.858Z,38.94
2022-08-24T05:11:28.502Z,38.99
2022-08-24T05:12:28.626Z,40.07
2022-08-24T05:13:28.630Z,38.89
2022-08-24T05:14:29.200Z,38.94
2022-08-24T05:15:28.827Z,38.94
2022-08-24T05:16:30.501Z,40.18
2022-08-24T05:17:29.044Z,38.94
2022-08-24T05:18:29.146Z,40.12
2022-08-24T05:19:29.261Z,40.07
2022-08-24T05:20:29.368Z,40.18
2022-08-24T05:21:29.488Z,40.12
2022-08-24T05:22:29.610Z,38.94
2022-08-24T05:23:29.671Z,38.94
2022-08-24T05:24:29.775Z,40.07
2022-08-24T05:25:29.885Z,37.76
2022-08-24T05:26:29.967Z,40.07
2022-08-24T05:27:30.078Z,38.94
2022-08-24T05:28:30.162Z,40.12
2022-08-24T05:29:30.271Z,40.07
2022-08-24T05:30:30.366Z,38.94
2022-08-24T05:31:30.543Z,40.12
2022-08-24T05:32:30.625Z,37.81
2022-08-24T05:33:30.684Z,37.76
2022-08-24T05:34:30.761Z,38.99
2022-08-24T05:35:30.875Z,37.76
2022-08-24T05:36:30.978Z,37.76
2022-08-24T05:37:31.087Z,38.94
2022-08-24T05:38:31.178Z,38.94
2022-08-24T05:39:31.306Z,38.89
2022-08-24T05:40:33.491Z,38.89
2022-08-24T05:41:31.489Z,38.94
2022-08-24T05:42:31.572Z,37.76
2022-08-24T05:43:31.662Z,38.89
2022-08-24T05:44:31.749Z,37.81
2022-08-24T05:45:31.859Z,38.94
2022-08-24T05:46:31.998Z,38.94
2022-08-24T05:47:32.017Z,38.94
2022-08-24T05:48:32.124Z,38.94
2022-08-24T05:49:32.199Z,38.94
2022-08-24T05:50:32.351Z,38.94
2022-08-24T05:51:32.417Z,38.94
2022-08-24T05:52:32.500Z,37.81
2022-08-24T05:53:32.632Z,38.94
2022-08-24T05:54:32.680Z,38.94
2022-08-24T05:55:32.820Z,38.94
2022-08-24T05:56:32.889Z,38.99
2022-08-24T05:57:32.970Z,37.76
2022-08-24T05:58:33.103Z,38.99
2022-08-24T05:59:33.228Z,38.94
2022-08-24T06:00:33.274Z,37.76
2022-08-24T06:01:33.586Z,38.94
2022-08-24T06:02:33.573Z,37.87
2022-08-24T06:03:33.582Z,38.99
2022-08-24T06:04:33.675Z,37.81
2022-08-24T06:05:33.779Z,38.94
2022-08-24T06:06:33.972Z,38.89
2022-08-24T06:07:33.989Z,37.71
2022-08-24T06:08:38.051Z,38.94
2022-08-24T06:09:34.177Z,38.94
2022-08-24T06:10:36.783Z,38.99
2022-08-24T06:11:34.380Z,37.76
2022-08-24T06:12:34.479Z,37.71
2022-08-24T06:13:34.596Z,38.99
2022-08-24T06:14:34.690Z,37.81
2022-08-24T06:15:34.802Z,38.99
2022-08-24T06:16:34.911Z,38.94
2022-08-24T06:17:35.126Z,38.99
2022-08-24T06:18:35.066Z,38.94
2022-08-24T06:19:35.174Z,37.76
2022-08-24T06:20:35.295Z,38.94
2022-08-24T06:21:35.404Z,38.94
2022-08-24T06:22:35.476Z,37.76
2022-08-24T06:23:35.557Z,37.81
2022-08-24T06:24:35.668Z,37.76
2022-08-24T06:25:35.755Z,38.94
2022-08-24T06:26:35.886Z,38.94
2022-08-24T06:27:35.959Z,38.94
2022-08-24T06:28:36.060Z,37.76
2022-08-24T06:29:36.153Z,37.76
2022-08-24T06:30:36.270Z,38.94
2022-08-24T06:31:39.599Z,37.71
2022-08-24T06:32:36.458Z,37.76
2022-08-24T06:33:36.525Z,37.81
2022-08-24T06:34:36.644Z,38.89
2022-08-24T06:35:36.744Z,37.71
2022-08-24T06:36:36.828Z,38.99
2022-08-24T06:37:36.949Z,37.81
2022-08-24T06:38:37.014Z,38.03
2022-08-24T06:39:37.091Z,38.99
2022-08-24T06:40:37.284Z,37.81
2022-08-24T06:41:37.310Z,38.94
2022-08-24T06:42:37.382Z,37.87
2022-08-24T06:43:37.470Z,37.76
2022-08-24T06:44:37.605Z,37.81
2022-08-24T06:45:37.682Z,37.76
2022-08-24T06:46:37.806Z,36.63
2022-08-24T06:47:37.857Z,37.76
2022-08-24T06:48:37.951Z,36.63
2022-08-24T06:49:38.041Z,37.81
2022-08-24T06:50:38.207Z,37.81
2022-08-24T06:51:38.239Z,37.81
2022-08-24T06:52:38.352Z,37.76
2022-08-24T06:53:38.432Z,35.61
2022-08-24T06:54:38.566Z,35.61
2022-08-24T06:55:38.639Z,36.68
2022-08-24T06:56:38.792Z,35.61
2022-08-24T06:57:38.838Z,35.61
2022-08-24T06:58:38.924Z,35.61
2022-08-24T06:59:39.082Z,35.66
2022-08-24T07:00:39.129Z,35.72
2022-08-24T07:01:39.262Z,36.63
2022-08-24T07:02:39.519Z,37.81
2022-08-24T07:03:39.456Z,36.63
2022-08-24T07:04:39.651Z,37.87
2022-08-24T07:05:39.749Z,36.58
2022-08-24T07:06:39.798Z,36.63
2022-08-24T07:07:39.871Z,36.63
2022-08-24T07:08:39.946Z,36.63
2022-08-24T07:09:40.003Z,36.63
2022-08-24T07:10:40.123Z,37.87
2022-08-24T07:11:40.202Z,35.66
2022-08-24T07:12:40.313Z,36.58
2022-08-24T07:13:40.389Z,36.58
2022-08-24T07:14:40.576Z,35.66
2022-08-24T07:15:40.639Z,35.66
2022-08-24T07:16:40.685Z,36.63
2022-08-24T07:17:40.766Z,35.61
2022-08-24T07:18:42.014Z,36.63
2022-08-24T07:19:40.958Z,35.61
2022-08-24T07:20:41.096Z,36.63
2022-08-24T07:21:41.192Z,35.61
2022-08-24T07:22:41.254Z,35.72
2022-08-24T07:23:42.860Z,35.61
2022-08-24T07:24:41.457Z,35.66
2022-08-24T07:25:44.889Z,35.66
2022-08-24T07:26:41.654Z,35.61
2022-08-24T07:27:41.752Z,35.61
2022-08-24T07:28:41.863Z,36.63
2022-08-24T07:29:52.758Z,35.72
2022-08-24T07:30:42.054Z,35.66
2022-08-24T07:31:42.114Z,35.66
2022-08-24T07:32:42.193Z,36.79
2022-08-24T07:33:42.317Z,35.66
2022-08-24T07:34:42.415Z,35.66
2022-08-24T07:35:42.496Z,36.58
2022-08-24T07:36:44.617Z,35.66
2022-08-24T07:37:42.676Z,35.66
2022-08-24T07:38:42.760Z,35.61
2022-08-24T07:39:42.937Z,35.66
2022-08-24T07:41:05.203Z,34.43
2022-08-24T07:42:43.190Z,35.66
2022-08-24T07:43:43.268Z,35.61
2022-08-24T07:44:43.338Z,34.43
2022-08-24T07:45:43.466Z,35.56
2022-08-24T07:46:43.710Z,36.63
2022-08-24T07:47:54.011Z,36.63
2022-08-24T07:48:43.777Z,36.58
2022-08-24T07:49:43.851Z,35.66
2022-08-24T07:50:43.936Z,35.61
2022-08-24T07:51:46.648Z,35.61
2022-08-24T07:52:44.103Z,36.68
2022-08-24T07:53:53.511Z,35.61
2022-08-24T07:54:44.312Z,35.61
2022-08-24T07:55:46.037Z,36.63
2022-08-24T07:56:44.488Z,36.36
2022-08-24T07:57:44.591Z,36.63
2022-08-24T07:58:44.675Z,35.77
2022-08-24T07:59:44.778Z,36.58
2022-08-24T08:00:44.888Z,36.68
2022-08-24T08:01:45.048Z,35.61
2022-08-24T08:02:45.085Z,35.61
2022-08-24T08:03:45.122Z,35.61
2022-08-24T08:04:45.278Z,35.66
2022-08-24T08:05:45.337Z,35.61
2022-08-24T08:06:45.459Z,36.63
2022-08-24T08:07:47.693Z,35.66
2022-08-24T08:08:45.617Z,35.66
2022-08-24T08:09:45.754Z,36.63
2022-08-24T08:10:45.839Z,35.66
2022-08-24T08:11:45.899Z,35.66
2022-08-24T08:12:45.996Z,35.66
2022-08-24T08:13:46.100Z,35.61
2022-08-24T08:14:46.189Z,35.66
2022-08-24T08:15:46.363Z,35.61
2022-08-24T08:16:46.397Z,35.72
2022-08-24T08:17:46.474Z,36.63
2022-08-24T08:18:52.017Z,36.63
2022-08-24T08:19:46.657Z,35.72
2022-08-24T08:20:46.753Z,35.66
2022-08-24T08:21:46.840Z,35.66
2022-08-24T08:22:46.954Z,36.63
2022-08-24T08:23:48.255Z,35.61
2022-08-24T08:24:47.131Z,35.66
2022-08-24T08:25:47.494Z,34.43
2022-08-24T08:26:47.326Z,35.66
2022-08-24T08:27:47.431Z,36.63
2022-08-24T08:28:47.517Z,35.61
2022-08-24T08:29:47.624Z,34.43
2022-08-24T08:30:47.767Z,36.63
2022-08-24T08:31:47.799Z,36.58
2022-08-24T08:32:48.063Z,34.43
2022-08-24T08:33:47.993Z,34.43
2022-08-24T08:34:48.099Z,35.66
2022-08-24T08:35:48.171Z,34.43
2022-08-24T08:36:48.250Z,35.66
2022-08-24T08:37:48.348Z,35.77
2022-08-24T08:38:48.458Z,34.43
2022-08-24T08:39:48.564Z,35.66
2022-08-24T08:40:48.649Z,34.43
2022-08-24T08:41:48.730Z,35.66
2022-08-24T08:42:48.859Z,35.61
2022-08-24T08:43:48.960Z,35.56
2022-08-24T08:44:49.052Z,35.66
2022-08-24T08:45:49.343Z,35.61
2022-08-24T08:46:49.301Z,35.61
2022-08-24T08:47:49.492Z,35.66
2022-08-24T08:48:49.420Z,35.61
2022-08-24T08:49:49.521Z,35.66
2022-08-24T08:50:49.641Z,35.72
2022-08-24T08:51:49.741Z,35.66
2022-08-24T08:52:49.819Z,35.61
2022-08-24T08:53:49.918Z,35.61
2022-08-24T08:54:50.021Z,34.38
2022-08-24T08:55:51.643Z,35.66
2022-08-24T08:56:50.237Z,34.43
2022-08-24T08:57:50.290Z,35.66
2022-08-24T08:58:57.194Z,34.48
2022-08-24T08:59:51.026Z,34.43
2022-08-24T09:00:50.557Z,34.43
2022-08-24T09:01:50.656Z,35.66
2022-08-24T09:02:50.743Z,35.66
2022-08-24T09:03:50.847Z,35.66
2022-08-24T09:04:51.005Z,34.48
2022-08-24T09:05:51.113Z,34.43
2022-08-24T09:06:51.115Z,34.43
2022-08-24T09:07:51.199Z,35.66
2022-08-24T09:08:52.165Z,35.61
2022-08-24T09:09:51.405Z,34.48
2022-08-24T09:10:51.483Z,35.66
2022-08-24T09:11:51.553Z,35.66
2022-08-24T09:12:51.659Z,35.66
2022-08-24T09:13:51.748Z,34.38
2022-08-24T09:14:51.842Z,35.66
2022-08-24T09:15:53.256Z,35.66
2022-08-24T09:16:52.079Z,35.66
2022-08-24T09:17:52.142Z,35.66
2022-08-24T09:18:52.231Z,34.43
2022-08-24T09:19:52.308Z,34.43
2022-08-24T09:20:52.404Z,34.43
2022-08-24T09:21:54.575Z,34.43
2022-08-24T09:22:52.677Z,34.43
2022-08-24T09:23:52.719Z,35.66
2022-08-24T09:24:52.837Z,34.48
2022-08-24T09:25:52.873Z,35.66
2022-08-24T09:26:52.949Z,34.48
2022-08-24T09:27:53.016Z,34.48
2022-08-24T09:28:53.151Z,35.66
2022-08-24T09:29:53.189Z,35.66
2022-08-24T09:30:53.320Z,34.43
2022-08-24T09:31:53.417Z,34.43
2022-08-24T09:32:53.420Z,34.64
2022-08-24T09:33:53.506Z,34.48
2022-08-24T09:34:53.594Z,35.66
2022-08-24T09:35:53.716Z,35.66
2022-08-24T09:36:53.765Z,35.66
2022-08-24T09:37:53.860Z,34.38
2022-08-24T09:38:53.948Z,35.66
2022-08-24T09:39:54.066Z,35.66
2022-08-24T09:40:54.132Z,34.43
2022-08-24T09:41:54.245Z,34.43
2022-08-24T09:42:54.305Z,35.61
2022-08-24T09:43:54.396Z,34.48
2022-08-24T09:44:54.507Z,35.61
2022-08-24T09:45:54.633Z,35.61
2022-08-24T09:46:54.686Z,34.43
2022-08-24T09:47:54.768Z,34.48
2022-08-24T09:48:54.851Z,35.66
2022-08-24T09:49:54.953Z,35.61
2022-08-24T09:50:55.042Z,35.66
2022-08-24T09:51:55.147Z,35.66
2022-08-24T09:52:55.267Z,35.66
2022-08-24T09:53:55.329Z,35.61
2022-08-24T09:54:55.437Z,35.66
2022-08-24T09:55:55.508Z,34.48
2022-08-24T09:57:09.410Z,34.48
2022-08-24T09:58:00.900Z,35.61
2022-08-24T09:58:55.801Z,35.66
2022-08-24T09:59:55.879Z,35.61
2022-08-24T10:00:56.940Z,35.61
2022-08-24T10:01:56.095Z,35.66
2022-08-24T10:02:56.159Z,34.43
2022-08-24T10:03:56.262Z,34.48
2022-08-24T10:04:56.455Z,34.43
2022-08-24T10:05:56.690Z,35.66
2022-08-24T10:06:56.514Z,35.72
2022-08-24T10:07:56.632Z,35.61
2022-08-24T10:08:56.710Z,35.61
2022-08-24T10:09:56.798Z,34.43
2022-08-24T10:10:56.877Z,34.43
2022-08-24T10:11:56.943Z,35.72
2022-08-24T10:12:57.043Z,34.43
2022-08-24T10:13:57.158Z,35.61
2022-08-24T10:14:57.253Z,34.38
2022-08-24T10:15:57.339Z,36.63
2022-08-24T10:16:57.476Z,36.58
2022-08-24T10:17:57.571Z,34.59
2022-08-24T10:18:57.628Z,34.43
2022-08-24T10:19:57.713Z,34.43
2022-08-24T10:20:57.795Z,36.42
2022-08-24T10:21:57.871Z,36.63
2022-08-24T10:22:57.985Z,35.61
2022-08-24T10:23:58.068Z,35.61
2022-08-24T10:24:58.144Z,35.61
2022-08-24T10:25:58.254Z,36.63
2022-08-24T10:26:58.359Z,35.66
2022-08-24T10:27:58.545Z,34.70
2022-08-24T10:28:58.580Z,36.63
2022-08-24T10:29:58.686Z,36.68
2022-08-24T10:30:58.790Z,36.58
2022-08-24T10:31:58.922Z,35.61
2022-08-24T10:32:58.951Z,34.43
2022-08-24T10:33:59.058Z,35.61
2022-08-24T10:34:59.110Z,35.56
2022-08-24T10:35:59.210Z,36.63
2022-08-24T10:36:59.316Z,36.63
2022-08-24T10:37:59.458Z,36.58
2022-08-24T10:38:59.475Z,36.68
2022-08-24T10:40:02.929Z,35.66
2022-08-24T10:40:59.684Z,35.66
2022-08-24T10:41:59.804Z,36.47
2022-08-24T10:42:59.844Z,36.58
2022-08-24T10:43:59.976Z,35.66
2022-08-24T10:45:00.020Z,35.61
2022-08-24T10:46:00.202Z,35.56
2022-08-24T10:47:00.211Z,35.66
2022-08-24T10:48:00.317Z,35.66
2022-08-24T10:49:00.434Z,35.61
2022-08-24T10:50:00.503Z,36.63
2022-08-24T10:51:00.600Z,35.66
2022-08-24T10:52:00.711Z,36.63
2022-08-24T10:53:00.810Z,34.43
2022-08-24T10:54:00.875Z,36.63
2022-08-24T10:55:00.983Z,34.43
2022-08-24T10:56:01.068Z,35.66
2022-08-24T10:57:01.174Z,36.63
2022-08-24T10:58:01.285Z,36.58
2022-08-24T10:59:01.365Z,36.63
2022-08-24T11:00:01.442Z,36.63
2022-08-24T11:01:01.587Z,35.77
2022-08-24T11:02:01.705Z,35.61
2022-08-24T11:03:01.785Z,36.63
2022-08-24T11:04:01.843Z,35.66
2022-08-24T11:05:01.960Z,37.81
2022-08-24T11:06:02.015Z,36.63
2022-08-24T11:07:02.121Z,36.58
2022-08-24T11:08:02.422Z,37.81
2022-08-24T11:09:02.288Z,36.63
2022-08-24T11:10:02.375Z,36.63
2022-08-24T11:11:02.478Z,35.66
2022-08-24T11:12:02.590Z,36.58
2022-08-24T11:13:02.662Z,36.63
2022-08-24T11:14:02.763Z,35.61
2022-08-24T11:15:02.834Z,35.66
2022-08-24T11:16:02.973Z,36.58
2022-08-24T11:17:03.050Z,35.61
2022-08-24T11:18:03.397Z,36.63
2022-08-24T11:19:03.201Z,36.63
2022-08-24T11:20:03.289Z,35.56
2022-08-24T11:21:03.399Z,36.58
2022-08-24T11:22:03.480Z,35.61
2022-08-24T11:23:03.591Z,35.61
2022-08-24T11:24:03.675Z,36.58
2022-08-24T11:25:03.753Z,35.66
2022-08-24T11:26:03.847Z,36.63
2022-08-24T11:27:03.949Z,36.58
2022-08-24T11:28:04.202Z,35.66
2022-08-24T11:29:04.147Z,35.66
2022-08-24T11:30:04.203Z,36.63
2022-08-24T11:31:04.350Z,35.61
2022-08-24T11:32:04.389Z,35.61
2022-08-24T11:33:04.539Z,35.56
2022-08-24T11:34:04.613Z,36.63
2022-08-24T11:35:04.675Z,36.63
2022-08-24T11:36:04.841Z,36.63
2022-08-24T11:37:04.879Z,36.58
2022-08-24T11:38:05.224Z,35.61
2022-08-24T11:39:05.077Z,36.58
2022-08-24T11:40:05.161Z,35.61
2022-08-24T11:41:07.112Z,35.61
2022-08-24T11:42:05.283Z,35.61
2022-08-24T11:43:06.198Z,36.63
2022-08-24T11:44:05.499Z,36.58
2022-08-24T11:45:05.614Z,36.58
2022-08-24T11:46:05.695Z,36.63
2022-08-24T11:47:05.850Z,35.66
2022-08-24T11:48:05.955Z,37.76
2022-08-24T11:49:05.979Z,37.76
2022-08-24T11:50:06.093Z,36.58
2022-08-24T11:51:06.168Z,36.58
2022-08-24T11:52:06.277Z,36.52
2022-08-24T11:53:12.404Z,36.58
2022-08-24T11:54:06.511Z,36.63
2022-08-24T11:55:06.566Z,35.66
2022-08-24T11:56:06.648Z,35.66
2022-08-24T11:57:08.492Z,36.58
2022-08-24T11:58:07.067Z,37.81
2022-08-24T11:59:06.940Z,36.63
2022-08-24T12:00:07.036Z,35.61
2022-08-24T12:01:07.140Z,36.58
2022-08-24T12:02:07.373Z,35.61
2022-08-24T12:03:07.468Z,37.81
2022-08-24T12:04:07.419Z,35.66
2022-08-24T12:05:07.504Z,37.76
2022-08-24T12:06:07.611Z,37.76
2022-08-24T12:07:07.689Z,36.58
2022-08-24T12:08:08.008Z,36.68
2022-08-24T12:09:07.853Z,36.63
2022-08-24T12:10:07.934Z,36.58
2022-08-24T12:11:08.015Z,36.63
2022-08-24T12:12:08.123Z,36.63
2022-08-24T12:13:08.192Z,36.58
2022-08-24T12:14:08.277Z,36.63
2022-08-24T12:15:08.375Z,37.76
2022-08-24T12:16:08.552Z,37.92
2022-08-24T12:17:08.563Z,37.81
2022-08-24T12:18:08.658Z,37.81
2022-08-24T12:19:08.754Z,36.63
2022-08-24T12:20:08.856Z,36.63
2022-08-24T12:21:12.663Z,36.58
2022-08-24T12:22:09.024Z,37.81
2022-08-24T12:23:09.093Z,36.58
2022-08-24T12:24:09.206Z,37.81
2022-08-24T12:25:09.277Z,36.63
2022-08-24T12:26:09.370Z,36.58
2022-08-24T12:27:09.461Z,36.58
2022-08-24T12:28:09.540Z,36.63
2022-08-24T12:29:09.690Z,36.58
2022-08-24T12:30:09.817Z,36.63
2022-08-24T12:31:09.852Z,36.58
2022-08-24T12:32:09.883Z,37.76
2022-08-24T12:33:09.952Z,37.76
2022-08-24T12:34:10.053Z,37.76
2022-08-24T12:35:10.148Z,37.81
2022-08-24T12:36:10.244Z,36.63
2022-08-24T12:37:10.933Z,36.52
2022-08-24T12:38:10.436Z,36.52
2022-08-24T12:39:10.487Z,36.68
2022-08-24T12:40:11.180Z,36.52
2022-08-24T12:41:17.559Z,37.81
2022-08-24T12:42:13.520Z,37.81
2022-08-24T12:43:10.885Z,36.63
2022-08-24T12:44:10.947Z,36.63
2022-08-24T12:45:11.039Z,36.58
2022-08-24T12:46:11.174Z,36.63
2022-08-24T12:47:13.430Z,37.76
2022-08-24T12:48:11.284Z,36.58
2022-08-24T12:49:11.374Z,36.58
2022-08-24T12:50:11.484Z,36.63
2022-08-24T12:51:11.604Z,37.76
2022-08-24T12:52:11.688Z,36.63
2022-08-24T12:53:13.299Z,36.58
2022-08-24T12:54:11.828Z,36.58
2022-08-24T12:55:11.927Z,36.63